sensor_id;sensor_type;location;lat;lon;timestamp;P1;durP1;ratioP1;P2;durP2;ratioP2
51082;SDS011;37131;42.694;23.350;2022-12-29T00:01:46;20.92;;;8.45;;
51082;SDS011;37131;42.694;23.350;2022-12-29T00:04:12;21.92;;;8.00;;
51082;SDS011;37131;42.694;23.350;2022-12-29T00:06:39;20.13;;;8.07;;
51082;SDS011;37131;42.694;23.350;2022-12-29T00:09:05;19.50;;;7.35;;
51082;SDS011;37131;42.694;23.350;2022-12-29T00:11:30;21.80;;;8.52;;
51082;SDS011;37131;42.694;23.350;2022-12-29T00:13:55;24.83;;;9.50;;
51082;SDS011;37131;42.694;23.350;2022-12-29T00:16:40;27.93;;;10.77;;
51082;SDS011;37131;42.694;23.350;2022-12-29T00:19:07;26.33;;;9.75;;
51082;SDS011;37131;42.694;23.350;2022-12-29T00:21:53;31.60;;;10.77;;
51082;SDS011;37131;42.694;23.350;2022-12-29T00:24:37;24.58;;;8.90;;
51082;SDS011;37131;42.694;23.350;2022-12-29T00:27:21;24.58;;;9.35;;
51082;SDS011;37131;42.694;23.350;2022-12-29T00:30:11;21.23;;;8.50;;
51082;SDS011;37131;42.694;23.350;2022-12-29T00:32:57;24.05;;;8.88;;
51082;SDS011;37131;42.694;23.350;2022-12-29T00:35:45;27.15;;;9.93;;
51082;SDS011;37131;42.694;23.350;2022-12-29T00:40:59;21.10;;;8.25;;
51082;SDS011;37131;42.694;23.350;2022-12-29T00:43:43;23.83;;;9.80;;
51082;SDS011;37131;42.694;23.350;2022-12-29T00:46:27;27.45;;;9.25;;
51082;SDS011;37131;42.694;23.350;2022-12-29T00:48:52;20.38;;;9.38;;
51082;SDS011;37131;42.694;23.350;2022-12-29T00:51:36;23.17;;;8.80;;
51082;SDS011;37131;42.694;23.350;2022-12-29T00:54:01;20.58;;;8.60;;
51082;SDS011;37131;42.694;23.350;2022-12-29T00:56:27;23.27;;;9.45;;
51082;SDS011;37131;42.694;23.350;2022-12-29T00:58:52;20.45;;;8.55;;
51082;SDS011;37131;42.694;23.350;2022-12-29T01:01:17;21.85;;;8.45;;
51082;SDS011;37131;42.694;23.350;2022-12-29T01:03:43;21.42;;;8.88;;
51082;SDS011;37131;42.694;23.350;2022-12-29T01:06:10;18.48;;;8.90;;
51082;SDS011;37131;42.694;23.350;2022-12-29T01:08:36;21.17;;;7.85;;
51082;SDS011;37131;42.694;23.350;2022-12-29T01:13:32;17.67;;;7.68;;
51082;SDS011;37131;42.694;23.350;2022-12-29T01:15:57;18.25;;;7.43;;
51082;SDS011;37131;42.694;23.350;2022-12-29T01:18:23;18.85;;;7.03;;
51082;SDS011;37131;42.694;23.350;2022-12-29T01:20:50;16.58;;;6.50;;
51082;SDS011;37131;42.694;23.350;2022-12-29T01:23:16;18.40;;;6.75;;
51082;SDS011;37131;42.694;23.350;2022-12-29T01:25:41;19.17;;;6.63;;
51082;SDS011;37131;42.694;23.350;2022-12-29T01:28:07;13.23;;;6.72;;
51082;SDS011;37131;42.694;23.350;2022-12-29T01:30:35;15.85;;;6.13;;
51082;SDS011;37131;42.694;23.350;2022-12-29T01:33:00;18.92;;;6.53;;
51082;SDS011;37131;42.694;23.350;2022-12-29T01:35:26;14.65;;;7.35;;
51082;SDS011;37131;42.694;23.350;2022-12-29T01:37:52;14.93;;;5.75;;
51082;SDS011;37131;42.694;23.350;2022-12-29T01:40:17;16.35;;;6.95;;
51082;SDS011;37131;42.694;23.350;2022-12-29T01:42:43;17.52;;;6.82;;
51082;SDS011;37131;42.694;23.350;2022-12-29T01:45:12;16.65;;;6.93;;
51082;SDS011;37131;42.694;23.350;2022-12-29T01:47:43;15.57;;;6.30;;
51082;SDS011;37131;42.694;23.350;2022-12-29T01:50:16;16.58;;;6.63;;
51082;SDS011;37131;42.694;23.350;2022-12-29T01:52:51;16.20;;;6.38;;
51082;SDS011;37131;42.694;23.350;2022-12-29T01:55:25;13.85;;;5.70;;
51082;SDS011;37131;42.694;23.350;2022-12-29T01:57:58;12.55;;;6.05;;
51082;SDS011;37131;42.694;23.350;2022-12-29T02:00:26;16.05;;;6.40;;
51082;SDS011;37131;42.694;23.350;2022-12-29T02:02:52;13.65;;;6.50;;
51082;SDS011;37131;42.694;23.350;2022-12-29T02:05:26;19.40;;;7.55;;
51082;SDS011;37131;42.694;23.350;2022-12-29T02:07:58;15.85;;;6.30;;
51082;SDS011;37131;42.694;23.350;2022-12-29T02:10:25;14.18;;;5.97;;
51082;SDS011;37131;42.694;23.350;2022-12-29T02:12:53;17.83;;;7.00;;
51082;SDS011;37131;42.694;23.350;2022-12-29T02:15:20;17.13;;;7.10;;
51082;SDS011;37131;42.694;23.350;2022-12-29T02:20:37;12.63;;;5.65;;
51082;SDS011;37131;42.694;23.350;2022-12-29T02:31:31;14.38;;;6.22;;
51082;SDS011;37131;42.694;23.350;2022-12-29T02:42:43;11.77;;;5.65;;
51082;SDS011;37131;42.694;23.350;2022-12-29T02:50:53;11.73;;;5.65;;
51082;SDS011;37131;42.694;23.350;2022-12-29T02:53:29;13.68;;;5.43;;
51082;SDS011;37131;42.694;23.350;2022-12-29T02:56:16;13.50;;;5.40;;
51082;SDS011;37131;42.694;23.350;2022-12-29T02:58:42;20.92;;;6.97;;
51082;SDS011;37131;42.694;23.350;2022-12-29T03:01:17;15.20;;;6.55;;
51082;SDS011;37131;42.694;23.350;2022-12-29T03:04:53;15.30;;;6.45;;
51082;SDS011;37131;42.694;23.350;2022-12-29T03:07:40;12.50;;;5.70;;
51082;SDS011;37131;42.694;23.350;2022-12-29T03:15:58;14.52;;;6.03;;
51082;SDS011;37131;42.694;23.350;2022-12-29T03:21:33;19.77;;;7.63;;
51082;SDS011;37131;42.694;23.350;2022-12-29T03:24:44;18.63;;;7.10;;
51082;SDS011;37131;42.694;23.350;2022-12-29T03:27:15;19.58;;;8.05;;
51082;SDS011;37131;42.694;23.350;2022-12-29T03:29:48;17.92;;;6.68;;
51082;SDS011;37131;42.694;23.350;2022-12-29T03:32:24;17.00;;;7.60;;
51082;SDS011;37131;42.694;23.350;2022-12-29T03:34:53;16.73;;;6.68;;
51082;SDS011;37131;42.694;23.350;2022-12-29T03:37:24;16.55;;;7.60;;
51082;SDS011;37131;42.694;23.350;2022-12-29T03:39:53;17.38;;;7.10;;
51082;SDS011;37131;42.694;23.350;2022-12-29T03:42:20;17.35;;;7.00;;
51082;SDS011;37131;42.694;23.350;2022-12-29T03:44:53;17.13;;;7.55;;
51082;SDS011;37131;42.694;23.350;2022-12-29T03:47:21;17.38;;;7.13;;
51082;SDS011;37131;42.694;23.350;2022-12-29T03:49:47;23.35;;;7.97;;
51082;SDS011;37131;42.694;23.350;2022-12-29T03:52:14;14.23;;;7.32;;
51082;SDS011;37131;42.694;23.350;2022-12-29T03:54:40;17.70;;;7.00;;
51082;SDS011;37131;42.694;23.350;2022-12-29T03:57:05;17.77;;;7.68;;
51082;SDS011;37131;42.694;23.350;2022-12-29T03:59:31;16.83;;;6.95;;
51082;SDS011;37131;42.694;23.350;2022-12-29T04:01:56;17.80;;;7.30;;
51082;SDS011;37131;42.694;23.350;2022-12-29T04:04:22;18.33;;;7.28;;
51082;SDS011;37131;42.694;23.350;2022-12-29T04:06:47;18.13;;;7.28;;
51082;SDS011;37131;42.694;23.350;2022-12-29T04:09:12;16.67;;;7.20;;
51082;SDS011;37131;42.694;23.350;2022-12-29T04:11:38;17.88;;;7.40;;
51082;SDS011;37131;42.694;23.350;2022-12-29T04:14:03;18.35;;;8.23;;
51082;SDS011;37131;42.694;23.350;2022-12-29T04:16:29;19.75;;;7.32;;
51082;SDS011;37131;42.694;23.350;2022-12-29T04:18:54;17.30;;;7.03;;
51082;SDS011;37131;42.694;23.350;2022-12-29T04:21:20;20.58;;;7.70;;
51082;SDS011;37131;42.694;23.350;2022-12-29T04:23:45;17.02;;;7.07;;
51082;SDS011;37131;42.694;23.350;2022-12-29T04:26:11;17.88;;;7.28;;
51082;SDS011;37131;42.694;23.350;2022-12-29T04:28:36;17.77;;;7.38;;
51082;SDS011;37131;42.694;23.350;2022-12-29T04:31:02;19.02;;;7.50;;
51082;SDS011;37131;42.694;23.350;2022-12-29T04:33:28;17.10;;;6.85;;
51082;SDS011;37131;42.694;23.350;2022-12-29T04:35:54;17.95;;;7.70;;
51082;SDS011;37131;42.694;23.350;2022-12-29T04:38:20;16.67;;;7.38;;
51082;SDS011;37131;42.694;23.350;2022-12-29T04:40:47;16.30;;;7.05;;
51082;SDS011;37131;42.694;23.350;2022-12-29T04:43:13;19.65;;;7.50;;
51082;SDS011;37131;42.694;23.350;2022-12-29T04:45:45;18.42;;;7.15;;
51082;SDS011;37131;42.694;23.350;2022-12-29T04:48:11;14.98;;;6.78;;
51082;SDS011;37131;42.694;23.350;2022-12-29T04:50:37;17.30;;;6.22;;
51082;SDS011;37131;42.694;23.350;2022-12-29T04:53:03;14.98;;;5.50;;
51082;SDS011;37131;42.694;23.350;2022-12-29T04:55:28;12.30;;;5.72;;
51082;SDS011;37131;42.694;23.350;2022-12-29T04:57:54;14.98;;;6.10;;
51082;SDS011;37131;42.694;23.350;2022-12-29T05:00:19;15.85;;;6.35;;
51082;SDS011;37131;42.694;23.350;2022-12-29T05:02:45;15.15;;;6.38;;
51082;SDS011;37131;42.694;23.350;2022-12-29T05:05:10;16.52;;;6.35;;
51082;SDS011;37131;42.694;23.350;2022-12-29T05:07:36;13.35;;;5.68;;
51082;SDS011;37131;42.694;23.350;2022-12-29T05:10:01;13.60;;;6.00;;
51082;SDS011;37131;42.694;23.350;2022-12-29T05:12:31;10.93;;;4.90;;
51082;SDS011;37131;42.694;23.350;2022-12-29T05:14:57;11.07;;;5.22;;
51082;SDS011;37131;42.694;23.350;2022-12-29T05:17:22;14.10;;;5.68;;
51082;SDS011;37131;42.694;23.350;2022-12-29T05:19:48;12.00;;;4.78;;
51082;SDS011;37131;42.694;23.350;2022-12-29T05:22:13;10.02;;;4.55;;
51082;SDS011;37131;42.694;23.350;2022-12-29T05:24:39;11.82;;;5.15;;
51082;SDS011;37131;42.694;23.350;2022-12-29T05:27:05;12.77;;;5.15;;
51082;SDS011;37131;42.694;23.350;2022-12-29T05:29:30;14.30;;;5.68;;
51082;SDS011;37131;42.694;23.350;2022-12-29T05:31:56;13.25;;;5.63;;
51082;SDS011;37131;42.694;23.350;2022-12-29T05:34:21;12.68;;;5.30;;
51082;SDS011;37131;42.694;23.350;2022-12-29T05:36:46;10.05;;;4.68;;
51082;SDS011;37131;42.694;23.350;2022-12-29T05:39:12;13.05;;;5.32;;
51082;SDS011;37131;42.694;23.350;2022-12-29T05:41:37;11.80;;;6.22;;
51082;SDS011;37131;42.694;23.350;2022-12-29T05:44:02;12.73;;;5.03;;
51082;SDS011;37131;42.694;23.350;2022-12-29T05:46:28;12.10;;;5.57;;
51082;SDS011;37131;42.694;23.350;2022-12-29T05:48:54;18.98;;;6.55;;
51082;SDS011;37131;42.694;23.350;2022-12-29T05:51:19;19.05;;;6.53;;
51082;SDS011;37131;42.694;23.350;2022-12-29T05:53:45;13.45;;;5.97;;
51082;SDS011;37131;42.694;23.350;2022-12-29T05:56:10;13.18;;;6.20;;
51082;SDS011;37131;42.694;23.350;2022-12-29T05:58:35;17.70;;;6.47;;
51082;SDS011;37131;42.694;23.350;2022-12-29T06:01:01;14.93;;;6.68;;
51082;SDS011;37131;42.694;23.350;2022-12-29T06:03:26;16.88;;;7.40;;
51082;SDS011;37131;42.694;23.350;2022-12-29T06:05:51;19.70;;;8.20;;
51082;SDS011;37131;42.694;23.350;2022-12-29T06:08:17;23.13;;;9.68;;
51082;SDS011;37131;42.694;23.350;2022-12-29T06:10:42;21.33;;;8.52;;
51082;SDS011;37131;42.694;23.350;2022-12-29T06:13:08;27.15;;;10.05;;
51082;SDS011;37131;42.694;23.350;2022-12-29T06:15:34;20.88;;;8.68;;
51082;SDS011;37131;42.694;23.350;2022-12-29T06:18:00;24.77;;;9.55;;
51082;SDS011;37131;42.694;23.350;2022-12-29T06:20:25;25.45;;;8.27;;
51082;SDS011;37131;42.694;23.350;2022-12-29T06:22:51;20.42;;;7.88;;
51082;SDS011;37131;42.694;23.350;2022-12-29T06:25:16;18.25;;;7.45;;
51082;SDS011;37131;42.694;23.350;2022-12-29T06:27:42;19.30;;;8.05;;
51082;SDS011;37131;42.694;23.350;2022-12-29T06:30:08;17.48;;;7.78;;
51082;SDS011;37131;42.694;23.350;2022-12-29T06:32:35;16.65;;;8.15;;
51082;SDS011;37131;42.694;23.350;2022-12-29T06:35:00;22.20;;;8.63;;
51082;SDS011;37131;42.694;23.350;2022-12-29T06:37:27;19.05;;;7.50;;
51082;SDS011;37131;42.694;23.350;2022-12-29T06:39:52;20.27;;;7.70;;
51082;SDS011;37131;42.694;23.350;2022-12-29T06:42:17;20.83;;;7.60;;
51082;SDS011;37131;42.694;23.350;2022-12-29T06:44:43;19.67;;;7.90;;
51082;SDS011;37131;42.694;23.350;2022-12-29T06:47:08;19.00;;;8.43;;
51082;SDS011;37131;42.694;23.350;2022-12-29T06:49:34;25.27;;;7.40;;
51082;SDS011;37131;42.694;23.350;2022-12-29T06:51:59;19.30;;;7.80;;
51082;SDS011;37131;42.694;23.350;2022-12-29T06:54:25;22.13;;;8.27;;
51082;SDS011;37131;42.694;23.350;2022-12-29T06:56:51;24.83;;;9.10;;
51082;SDS011;37131;42.694;23.350;2022-12-29T06:59:17;26.85;;;9.30;;
51082;SDS011;37131;42.694;23.350;2022-12-29T07:01:42;23.65;;;9.48;;
51082;SDS011;37131;42.694;23.350;2022-12-29T07:04:08;24.98;;;8.50;;
51082;SDS011;37131;42.694;23.350;2022-12-29T07:06:33;25.13;;;9.82;;
51082;SDS011;37131;42.694;23.350;2022-12-29T07:08:59;29.25;;;9.32;;
51082;SDS011;37131;42.694;23.350;2022-12-29T07:11:24;26.70;;;9.48;;
51082;SDS011;37131;42.694;23.350;2022-12-29T07:13:50;22.38;;;9.20;;
51082;SDS011;37131;42.694;23.350;2022-12-29T07:16:15;28.83;;;10.98;;
51082;SDS011;37131;42.694;23.350;2022-12-29T07:18:40;25.70;;;10.55;;
51082;SDS011;37131;42.694;23.350;2022-12-29T07:21:06;26.27;;;10.05;;
51082;SDS011;37131;42.694;23.350;2022-12-29T07:23:32;25.05;;;10.05;;
51082;SDS011;37131;42.694;23.350;2022-12-29T07:25:59;24.65;;;10.18;;
51082;SDS011;37131;42.694;23.350;2022-12-29T07:28:28;26.05;;;9.27;;
51082;SDS011;37131;42.694;23.350;2022-12-29T07:30:54;20.73;;;9.80;;
51082;SDS011;37131;42.694;23.350;2022-12-29T07:33:19;21.55;;;8.70;;
51082;SDS011;37131;42.694;23.350;2022-12-29T07:35:45;29.80;;;9.68;;
51082;SDS011;37131;42.694;23.350;2022-12-29T07:38:10;26.13;;;9.95;;
51082;SDS011;37131;42.694;23.350;2022-12-29T07:40:36;24.70;;;9.48;;
51082;SDS011;37131;42.694;23.350;2022-12-29T07:43:01;22.50;;;8.27;;
51082;SDS011;37131;42.694;23.350;2022-12-29T07:45:26;20.55;;;9.07;;
51082;SDS011;37131;42.694;23.350;2022-12-29T07:47:52;20.40;;;9.13;;
51082;SDS011;37131;42.694;23.350;2022-12-29T07:50:17;19.33;;;7.80;;
51082;SDS011;37131;42.694;23.350;2022-12-29T07:52:42;26.75;;;8.90;;
51082;SDS011;37131;42.694;23.350;2022-12-29T07:55:08;24.77;;;9.48;;
51082;SDS011;37131;42.694;23.350;2022-12-29T07:57:34;22.95;;;9.30;;
51082;SDS011;37131;42.694;23.350;2022-12-29T07:59:59;22.00;;;9.55;;
51082;SDS011;37131;42.694;23.350;2022-12-29T08:02:25;22.65;;;9.20;;
51082;SDS011;37131;42.694;23.350;2022-12-29T08:04:51;23.17;;;9.77;;
51082;SDS011;37131;42.694;23.350;2022-12-29T08:07:16;25.63;;;8.50;;
51082;SDS011;37131;42.694;23.350;2022-12-29T08:09:42;20.38;;;8.85;;
51082;SDS011;37131;42.694;23.350;2022-12-29T08:12:08;17.42;;;8.82;;
51082;SDS011;37131;42.694;23.350;2022-12-29T08:14:35;22.25;;;9.13;;
51082;SDS011;37131;42.694;23.350;2022-12-29T08:17:01;20.30;;;9.23;;
51082;SDS011;37131;42.694;23.350;2022-12-29T08:19:26;19.10;;;8.63;;
51082;SDS011;37131;42.694;23.350;2022-12-29T08:21:52;22.65;;;8.85;;
51082;SDS011;37131;42.694;23.350;2022-12-29T08:24:18;19.67;;;8.38;;
51082;SDS011;37131;42.694;23.350;2022-12-29T08:26:43;20.35;;;8.40;;
51082;SDS011;37131;42.694;23.350;2022-12-29T08:29:08;21.02;;;8.93;;
51082;SDS011;37131;42.694;23.350;2022-12-29T08:31:34;20.00;;;7.57;;
51082;SDS011;37131;42.694;23.350;2022-12-29T08:34:00;19.08;;;8.60;;
51082;SDS011;37131;42.694;23.350;2022-12-29T08:36:26;24.30;;;8.45;;
51082;SDS011;37131;42.694;23.350;2022-12-29T08:38:51;17.95;;;7.63;;
51082;SDS011;37131;42.694;23.350;2022-12-29T08:41:17;19.27;;;8.93;;
51082;SDS011;37131;42.694;23.350;2022-12-29T08:43:45;20.05;;;7.95;;
51082;SDS011;37131;42.694;23.350;2022-12-29T08:46:12;20.17;;;8.60;;
51082;SDS011;37131;42.694;23.350;2022-12-29T08:48:37;17.90;;;8.55;;
51082;SDS011;37131;42.694;23.350;2022-12-29T08:51:03;18.10;;;8.23;;
51082;SDS011;37131;42.694;23.350;2022-12-29T08:53:28;22.77;;;8.63;;
51082;SDS011;37131;42.694;23.350;2022-12-29T08:55:55;19.98;;;8.50;;
51082;SDS011;37131;42.694;23.350;2022-12-29T08:58:23;19.35;;;8.15;;
51082;SDS011;37131;42.694;23.350;2022-12-29T09:00:48;23.73;;;9.52;;
51082;SDS011;37131;42.694;23.350;2022-12-29T09:03:14;17.92;;;8.02;;
51082;SDS011;37131;42.694;23.350;2022-12-29T09:05:39;23.48;;;8.27;;
51082;SDS011;37131;42.694;23.350;2022-12-29T09:08:04;20.15;;;7.90;;
51082;SDS011;37131;42.694;23.350;2022-12-29T09:10:30;21.33;;;8.05;;
51082;SDS011;37131;42.694;23.350;2022-12-29T09:12:55;23.50;;;8.63;;
51082;SDS011;37131;42.694;23.350;2022-12-29T09:15:21;17.00;;;7.05;;
51082;SDS011;37131;42.694;23.350;2022-12-29T09:17:47;21.30;;;8.80;;
51082;SDS011;37131;42.694;23.350;2022-12-29T09:20:16;20.83;;;8.40;;
51082;SDS011;37131;42.694;23.350;2022-12-29T09:22:43;18.30;;;7.95;;
51082;SDS011;37131;42.694;23.350;2022-12-29T09:25:09;17.38;;;8.02;;
51082;SDS011;37131;42.694;23.350;2022-12-29T09:27:36;17.35;;;7.25;;
51082;SDS011;37131;42.694;23.350;2022-12-29T09:30:06;17.38;;;7.80;;
51082;SDS011;37131;42.694;23.350;2022-12-29T09:32:34;20.60;;;7.53;;
51082;SDS011;37131;42.694;23.350;2022-12-29T09:34:59;19.85;;;8.30;;
51082;SDS011;37131;42.694;23.350;2022-12-29T09:37:25;20.90;;;8.20;;
51082;SDS011;37131;42.694;23.350;2022-12-29T09:39:50;21.17;;;8.48;;
51082;SDS011;37131;42.694;23.350;2022-12-29T09:47:39;18.10;;;7.95;;
51082;SDS011;37131;42.694;23.350;2022-12-29T09:50:16;21.45;;;8.73;;
51082;SDS011;37131;42.694;23.350;2022-12-29T09:52:48;33.45;;;11.32;;
51082;SDS011;37131;42.694;23.350;2022-12-29T09:55:19;22.35;;;8.38;;
51082;SDS011;37131;42.694;23.350;2022-12-29T10:00:19;20.02;;;8.55;;
51082;SDS011;37131;42.694;23.350;2022-12-29T10:02:48;19.05;;;7.93;;
51082;SDS011;37131;42.694;23.350;2022-12-29T10:05:28;17.77;;;7.20;;
51082;SDS011;37131;42.694;23.350;2022-12-29T10:08:11;18.67;;;7.65;;
51082;SDS011;37131;42.694;23.350;2022-12-29T10:13:28;21.08;;;8.48;;
51082;SDS011;37131;42.694;23.350;2022-12-29T10:16:07;19.83;;;8.25;;
51082;SDS011;37131;42.694;23.350;2022-12-29T10:18:48;18.00;;;8.38;;
51082;SDS011;37131;42.694;23.350;2022-12-29T10:24:02;26.30;;;9.65;;
51082;SDS011;37131;42.694;23.350;2022-12-29T10:26:32;19.92;;;8.50;;
51082;SDS011;37131;42.694;23.350;2022-12-29T10:29:03;20.55;;;8.57;;
51082;SDS011;37131;42.694;23.350;2022-12-29T10:31:35;18.15;;;7.70;;
51082;SDS011;37131;42.694;23.350;2022-12-29T10:34:42;18.23;;;7.88;;
51082;SDS011;37131;42.694;23.350;2022-12-29T10:37:10;16.67;;;7.50;;
51082;SDS011;37131;42.694;23.350;2022-12-29T10:39:44;18.98;;;7.72;;
51082;SDS011;37131;42.694;23.350;2022-12-29T10:44:49;17.50;;;7.30;;
51082;SDS011;37131;42.694;23.350;2022-12-29T10:47:15;17.40;;;7.78;;
51082;SDS011;37131;42.694;23.350;2022-12-29T10:49:46;18.52;;;7.80;;
51082;SDS011;37131;42.694;23.350;2022-12-29T10:52:13;14.75;;;7.55;;
51082;SDS011;37131;42.694;23.350;2022-12-29T10:57:28;20.70;;;8.00;;
51082;SDS011;37131;42.694;23.350;2022-12-29T10:59:58;20.10;;;7.93;;
51082;SDS011;37131;42.694;23.350;2022-12-29T11:05:02;18.20;;;7.63;;
51082;SDS011;37131;42.694;23.350;2022-12-29T11:07:35;21.17;;;8.80;;
51082;SDS011;37131;42.694;23.350;2022-12-29T11:12:59;21.00;;;8.98;;
51082;SDS011;37131;42.694;23.350;2022-12-29T11:15:27;17.95;;;8.23;;
51082;SDS011;37131;42.694;23.350;2022-12-29T11:18:02;22.98;;;8.68;;
51082;SDS011;37131;42.694;23.350;2022-12-29T11:20:29;18.98;;;7.80;;
51082;SDS011;37131;42.694;23.350;2022-12-29T11:23:00;25.65;;;9.15;;
51082;SDS011;37131;42.694;23.350;2022-12-29T11:25:27;25.95;;;10.07;;
51082;SDS011;37131;42.694;23.350;2022-12-29T11:30:22;17.88;;;8.18;;
51082;SDS011;37131;42.694;23.350;2022-12-29T11:32:53;21.15;;;8.63;;
51082;SDS011;37131;42.694;23.350;2022-12-29T11:35:29;18.42;;;7.43;;
51082;SDS011;37131;42.694;23.350;2022-12-29T11:38:19;17.88;;;8.02;;
51082;SDS011;37131;42.694;23.350;2022-12-29T11:40:48;17.05;;;7.57;;
51082;SDS011;37131;42.694;23.350;2022-12-29T11:43:26;18.52;;;8.05;;
51082;SDS011;37131;42.694;23.350;2022-12-29T11:45:58;20.67;;;8.30;;
51082;SDS011;37131;42.694;23.350;2022-12-29T11:48:24;22.73;;;8.73;;
51082;SDS011;37131;42.694;23.350;2022-12-29T11:50:55;16.65;;;7.53;;
51082;SDS011;37131;42.694;23.350;2022-12-29T11:53:26;15.93;;;7.53;;
51082;SDS011;37131;42.694;23.350;2022-12-29T11:56:00;13.60;;;6.63;;
51082;SDS011;37131;42.694;23.350;2022-12-29T11:58:31;16.27;;;7.05;;
51082;SDS011;37131;42.694;23.350;2022-12-29T12:01:05;13.82;;;7.07;;
51082;SDS011;37131;42.694;23.350;2022-12-29T12:03:37;22.08;;;7.28;;
51082;SDS011;37131;42.694;23.350;2022-12-29T12:06:05;19.58;;;6.93;;
51082;SDS011;37131;42.694;23.350;2022-12-29T12:11:18;19.30;;;7.70;;
51082;SDS011;37131;42.694;23.350;2022-12-29T12:13:52;14.88;;;7.13;;
51082;SDS011;37131;42.694;23.350;2022-12-29T12:16:31;17.98;;;7.47;;
51082;SDS011;37131;42.694;23.350;2022-12-29T12:24:54;15.52;;;7.45;;
51082;SDS011;37131;42.694;23.350;2022-12-29T12:27:26;16.63;;;8.30;;
51082;SDS011;37131;42.694;23.350;2022-12-29T12:29:58;18.75;;;7.55;;
51082;SDS011;37131;42.694;23.350;2022-12-29T12:35:15;18.80;;;8.32;;
51082;SDS011;37131;42.694;23.350;2022-12-29T12:43:39;16.30;;;7.65;;
51082;SDS011;37131;42.694;23.350;2022-12-29T12:54:22;14.38;;;7.70;;
51082;SDS011;37131;42.694;23.350;2022-12-29T13:00:18;13.02;;;7.00;;
51082;SDS011;37131;42.694;23.350;2022-12-29T13:05:47;16.70;;;7.57;;
51082;SDS011;37131;42.694;23.350;2022-12-29T13:19:48;15.98;;;7.15;;
51082;SDS011;37131;42.694;23.350;2022-12-29T13:28:05;15.73;;;7.22;;
51082;SDS011;37131;42.694;23.350;2022-12-29T13:30:50;17.80;;;7.97;;
51082;SDS011;37131;42.694;23.350;2022-12-29T13:38:50;16.73;;;7.65;;
51082;SDS011;37131;42.694;23.350;2022-12-29T13:43:46;21.00;;;8.63;;
51082;SDS011;37131;42.694;23.350;2022-12-29T13:46:13;14.98;;;7.07;;
51082;SDS011;37131;42.694;23.350;2022-12-29T13:48:46;18.65;;;7.43;;
51082;SDS011;37131;42.694;23.350;2022-12-29T13:51:15;18.02;;;7.75;;
51082;SDS011;37131;42.694;23.350;2022-12-29T13:56:47;19.35;;;7.38;;
51082;SDS011;37131;42.694;23.350;2022-12-29T14:02:07;17.58;;;7.55;;
51082;SDS011;37131;42.694;23.350;2022-12-29T14:04:34;20.83;;;8.32;;
51082;SDS011;37131;42.694;23.350;2022-12-29T14:07:05;18.20;;;8.27;;
51082;SDS011;37131;42.694;23.350;2022-12-29T14:15:13;17.77;;;7.85;;
51082;SDS011;37131;42.694;23.350;2022-12-29T14:17:44;21.35;;;8.02;;
51082;SDS011;37131;42.694;23.350;2022-12-29T14:20:28;15.60;;;7.20;;
51082;SDS011;37131;42.694;23.350;2022-12-29T14:22:58;18.25;;;7.68;;
51082;SDS011;37131;42.694;23.350;2022-12-29T14:28:26;18.35;;;7.95;;
51082;SDS011;37131;42.694;23.350;2022-12-29T14:30:55;20.35;;;8.60;;
51082;SDS011;37131;42.694;23.350;2022-12-29T14:33:22;19.73;;;8.48;;
51082;SDS011;37131;42.694;23.350;2022-12-29T14:35:50;20.50;;;8.65;;
51082;SDS011;37131;42.694;23.350;2022-12-29T14:38:24;19.58;;;9.23;;
51082;SDS011;37131;42.694;23.350;2022-12-29T14:43:23;22.98;;;8.77;;
51082;SDS011;37131;42.694;23.350;2022-12-29T14:45:55;19.05;;;8.48;;
51082;SDS011;37131;42.694;23.350;2022-12-29T14:48:44;22.30;;;9.50;;
51082;SDS011;37131;42.694;23.350;2022-12-29T14:57:20;27.05;;;10.80;;
51082;SDS011;37131;42.694;23.350;2022-12-29T14:59:46;32.05;;;11.13;;
51082;SDS011;37131;42.694;23.350;2022-12-29T15:02:19;30.88;;;11.10;;
51082;SDS011;37131;42.694;23.350;2022-12-29T15:04:47;32.75;;;13.48;;
51082;SDS011;37131;42.694;23.350;2022-12-29T15:07:12;23.38;;;9.93;;
51082;SDS011;37131;42.694;23.350;2022-12-29T15:09:41;30.20;;;10.27;;
51082;SDS011;37131;42.694;23.350;2022-12-29T15:14:52;23.30;;;9.82;;
51082;SDS011;37131;42.694;23.350;2022-12-29T15:19:52;29.25;;;11.30;;
51082;SDS011;37131;42.694;23.350;2022-12-29T15:22:18;26.63;;;10.50;;
51082;SDS011;37131;42.694;23.350;2022-12-29T15:24:44;26.52;;;10.52;;
51082;SDS011;37131;42.694;23.350;2022-12-29T15:27:12;22.00;;;9.88;;
51082;SDS011;37131;42.694;23.350;2022-12-29T15:29:41;27.90;;;10.98;;
51082;SDS011;37131;42.694;23.350;2022-12-29T15:34:45;28.88;;;11.98;;
51082;SDS011;37131;42.694;23.350;2022-12-29T15:37:21;28.15;;;11.88;;
51082;SDS011;37131;42.694;23.350;2022-12-29T15:39:50;34.13;;;13.15;;
51082;SDS011;37131;42.694;23.350;2022-12-29T15:44:55;31.23;;;12.45;;
51082;SDS011;37131;42.694;23.350;2022-12-29T15:47:25;35.42;;;13.57;;
51082;SDS011;37131;42.694;23.350;2022-12-29T15:49:58;31.92;;;12.90;;
51082;SDS011;37131;42.694;23.350;2022-12-29T15:52:34;31.05;;;13.07;;
51082;SDS011;37131;42.694;23.350;2022-12-29T15:55:04;30.70;;;12.80;;
51082;SDS011;37131;42.694;23.350;2022-12-29T15:57:30;29.38;;;12.20;;
51082;SDS011;37131;42.694;23.350;2022-12-29T16:00:02;30.15;;;12.35;;
51082;SDS011;37131;42.694;23.350;2022-12-29T16:02:29;28.60;;;12.05;;
51082;SDS011;37131;42.694;23.350;2022-12-29T16:04:55;39.42;;;12.52;;
51082;SDS011;37131;42.694;23.350;2022-12-29T16:07:27;26.67;;;11.43;;
51082;SDS011;37131;42.694;23.350;2022-12-29T16:09:56;37.20;;;13.43;;
51082;SDS011;37131;42.694;23.350;2022-12-29T16:12:24;34.53;;;12.82;;
51082;SDS011;37131;42.694;23.350;2022-12-29T16:14:57;30.10;;;12.15;;
51082;SDS011;37131;42.694;23.350;2022-12-29T16:17:26;31.55;;;12.32;;
51082;SDS011;37131;42.694;23.350;2022-12-29T16:20:15;34.47;;;13.32;;
51082;SDS011;37131;42.694;23.350;2022-12-29T16:23:02;34.92;;;13.23;;
51082;SDS011;37131;42.694;23.350;2022-12-29T16:25:29;32.08;;;13.32;;
51082;SDS011;37131;42.694;23.350;2022-12-29T16:27:59;39.50;;;15.27;;
51082;SDS011;37131;42.694;23.350;2022-12-29T16:30:27;66.28;;;27.02;;
51082;SDS011;37131;42.694;23.350;2022-12-29T16:32:56;89.93;;;37.10;;
51082;SDS011;37131;42.694;23.350;2022-12-29T16:35:26;92.30;;;34.67;;
51082;SDS011;37131;42.694;23.350;2022-12-29T16:40:57;100.40;;;37.47;;
51082;SDS011;37131;42.694;23.350;2022-12-29T16:43:30;96.15;;;35.55;;
51082;SDS011;37131;42.694;23.350;2022-12-29T16:48:26;90.50;;;35.05;;
51082;SDS011;37131;42.694;23.350;2022-12-29T16:50:52;95.13;;;35.28;;
51082;SDS011;37131;42.694;23.350;2022-12-29T16:53:29;105.25;;;38.45;;
51082;SDS011;37131;42.694;23.350;2022-12-29T16:56:01;94.60;;;36.28;;
51082;SDS011;37131;42.694;23.350;2022-12-29T16:58:31;96.72;;;37.80;;
51082;SDS011;37131;42.694;23.350;2022-12-29T17:00:58;106.50;;;37.83;;
51082;SDS011;37131;42.694;23.350;2022-12-29T17:03:27;110.60;;;39.75;;
51082;SDS011;37131;42.694;23.350;2022-12-29T17:05:57;95.07;;;36.67;;
51082;SDS011;37131;42.694;23.350;2022-12-29T17:08:23;94.20;;;35.83;;
51082;SDS011;37131;42.694;23.350;2022-12-29T17:10:51;92.97;;;34.00;;
51082;SDS011;37131;42.694;23.350;2022-12-29T17:13:54;94.80;;;34.65;;